createdAt,value
2019-01-02T00:01:54.083Z,93.60
2019-01-02T00:04:23.377Z,93.80
2019-01-02T00:06:51.464Z,94.10
2019-01-02T00:09:19.609Z,94.20
2019-01-02T00:11:47.685Z,94.20
2019-01-02T00:14:15.828Z,94.20
2019-01-02T00:16:44.103Z,94.30
2019-01-02T00:19:12.241Z,94.30
2019-01-02T00:21:40.928Z,94.20
2019-01-02T00:24:09.419Z,94.10
2019-01-02T00:26:37.962Z,94.20
2019-01-02T00:29:06.084Z,94.30
2019-01-02T00:31:34.168Z,94.60
2019-01-02T00:34:02.302Z,94.30
2019-01-02T00:36:30.389Z,94.30
2019-01-02T00:38:58.589Z,94.40
2019-01-02T00:41:26.662Z,94.30
2019-01-02T00:43:54.741Z,94.40
2019-01-02T00:46:22.961Z,94.30
2019-01-02T00:48:51.157Z,94.30
2019-01-02T00:51:19.245Z,94.50
2019-01-02T00:53:47.532Z,94.40
2019-01-02T00:56:16.104Z,94.40
2019-01-02T00:58:44.328Z,94.20
2019-01-02T01:01:12.609Z,94.10
2019-01-02T01:03:40.696Z,94.50
2019-01-02T01:06:08.842Z,94.30
2019-01-02T01:08:36.943Z,94.60
2019-01-02T01:11:05.958Z,94.50
2019-01-02T01:13:34.153Z,94.40
2019-01-02T01:16:02.889Z,94.40
2019-01-02T01:18:31.081Z,94.30
2019-01-02T01:20:59.515Z,94.50
2019-01-02T01:23:27.621Z,94.50
2019-01-02T01:25:55.706Z,94.30
2019-01-02T01:28:24.231Z,94.20
2019-01-02T01:30:52.421Z,94.20
2019-01-02T01:33:20.955Z,94.20
2019-01-02T01:35:49.940Z,94.10
2019-01-02T01:38:18.533Z,94.20
2019-01-02T01:40:47.309Z,94.10
2019-01-02T01:43:15.600Z,94.10
2019-01-02T01:45:43.684Z,94.00
2019-01-02T01:48:11.824Z,93.90
2019-01-02T01:50:39.909Z,93.80
2019-01-02T01:53:08.470Z,93.60
2019-01-02T01:55:37.055Z,93.70
2019-01-02T01:58:05.176Z,93.60
2019-01-02T02:00:33.401Z,93.60
2019-01-02T02:03:01.546Z,93.50
2019-01-02T02:05:30.012Z,93.40
2019-01-02T02:07:58.138Z,93.40
2019-01-02T02:10:26.738Z,93.20
2019-01-02T02:12:54.883Z,93.10
2019-01-02T02:15:23.941Z,93.10
2019-01-02T02:17:52.566Z,93.10
2019-01-02T02:20:21.097Z,93.10
2019-01-02T02:22:49.223Z,93.30
2019-01-02T02:25:19.897Z,93.00
2019-01-02T02:27:48.136Z,93.10
2019-01-02T02:30:17.222Z,93.10
2019-01-02T02:32:47.043Z,92.80
2019-01-02T02:35:15.583Z,93.10
2019-01-02T02:37:43.789Z,93.20
2019-01-02T02:40:12.733Z,93.10
2019-01-02T02:42:40.954Z,93.00
2019-01-02T02:45:10.922Z,93.10
2019-01-02T02:47:39.542Z,93.00
2019-01-02T02:50:10.828Z,93.30
2019-01-02T02:52:38.996Z,93.10
2019-01-02T02:55:08.934Z,93.10
2019-01-02T02:57:37.526Z,93.00
2019-01-02T03:00:12.085Z,93.00
2019-01-02T03:02:40.428Z,93.20
2019-01-02T03:05:27.979Z,93.20
2019-01-02T03:07:56.212Z,93.10
2019-01-02T03:10:24.697Z,93.20
2019-01-02T03:12:53.132Z,93.20
2019-01-02T03:15:21.823Z,93.20
2019-01-02T03:17:49.932Z,93.40
2019-01-02T03:20:18.024Z,93.60
2019-01-02T03:22:46.150Z,94.00
2019-01-02T03:25:14.927Z,94.20
2019-01-02T03:27:43.428Z,94.30
2019-01-02T03:30:17.181Z,94.20
2019-01-02T03:32:46.129Z,94.10
2019-01-02T03:35:14.723Z,94.20
2019-01-02T03:37:43.001Z,94.20
2019-01-02T03:40:11.312Z,94.60
2019-01-02T03:42:39.554Z,94.20
2019-01-02T03:45:10.196Z,93.90
2019-01-02T03:47:38.341Z,93.70
2019-01-02T03:50:08.590Z,93.60
2019-01-02T03:52:36.719Z,93.50
2019-01-02T03:55:06.197Z,93.60
2019-01-02T03:57:34.820Z,93.90
2019-01-02T04:00:04.942Z,94.40
2019-01-02T04:02:33.194Z,94.80
2019-01-02T04:05:01.286Z,95.20
2019-01-02T04:07:29.460Z,95.60
2019-01-02T04:09:57.530Z,95.20
2019-01-02T04:12:25.669Z,94.90
2019-01-02T04:14:53.839Z,94.60
2019-01-02T04:17:21.954Z,94.80
2019-01-02T04:19:50.029Z,94.90
2019-01-02T04:22:18.104Z,95.40
2019-01-02T04:24:46.240Z,95.70
2019-01-02T04:27:14.325Z,95.70
2019-01-02T04:29:42.529Z,95.90
2019-01-02T04:32:10.629Z,96.30
2019-01-02T04:34:38.766Z,96.20
2019-01-02T04:37:07.708Z,96.20
2019-01-02T04:39:35.854Z,96.40
2019-01-02T04:42:04.377Z,97.00
2019-01-02T04:44:32.608Z,97.00
2019-01-02T04:47:00.780Z,97.20
2019-01-02T04:49:28.917Z,97.00
2019-01-02T04:51:56.993Z,97.00
2019-01-02T04:54:25.116Z,97.10
2019-01-02T04:56:53.205Z,97.20
2019-01-02T04:59:21.351Z,97.10
2019-01-02T05:01:49.466Z,96.90
2019-01-02T05:04:17.659Z,96.90
2019-01-02T05:06:45.887Z,96.40
2019-01-02T05:09:14.070Z,96.30
2019-01-02T05:11:42.141Z,96.50
2019-01-02T05:14:10.305Z,95.80
2019-01-02T05:16:38.505Z,95.50
2019-01-02T05:19:07.392Z,95.20
2019-01-02T05:21:35.616Z,94.70
2019-01-02T05:24:03.959Z,94.90
2019-01-02T05:26:32.082Z,95.30
2019-01-02T05:29:00.170Z,95.50
2019-01-02T05:31:28.701Z,95.60
2019-01-02T05:33:56.787Z,95.30
2019-01-02T05:36:24.919Z,95.00
2019-01-02T05:38:53.017Z,94.50
2019-01-02T05:41:21.529Z,94.30
2019-01-02T05:43:49.608Z,93.80
2019-01-02T05:46:17.738Z,93.40
2019-01-02T05:48:45.930Z,93.30
2019-01-02T05:51:14.057Z,92.90
2019-01-02T05:53:42.158Z,92.80
2019-01-02T05:56:10.297Z,91.70
2019-01-02T05:58:38.382Z,91.50
2019-01-02T06:01:06.500Z,91.40
2019-01-02T06:03:34.581Z,91.30
2019-01-02T06:06:02.813Z,90.60
2019-01-02T06:08:30.936Z,90.20
2019-01-02T06:10:59.079Z,90.20
2019-01-02T06:13:27.164Z,90.30
2019-01-02T06:15:55.339Z,88.70
2019-01-02T06:18:23.500Z,88.80
2019-01-02T06:20:51.720Z,89.60
2019-01-02T06:23:19.799Z,88.30
2019-01-02T06:25:48.480Z,88.40
2019-01-02T06:28:16.552Z,88.60
2019-01-02T06:30:44.712Z,87.90
2019-01-02T06:33:12.832Z,87.50
2019-01-02T06:35:40.945Z,86.50
2019-01-02T06:38:09.013Z,86.20
2019-01-02T06:40:37.129Z,85.20
2019-01-02T06:43:05.193Z,85.00
2019-01-02T06:45:33.320Z,85.40
2019-01-02T06:48:01.833Z,85.10
2019-01-02T06:50:29.900Z,85.20
2019-01-02T06:52:58.008Z,85.80
2019-01-02T06:55:26.077Z,85.80
2019-01-02T06:57:54.297Z,86.10
2019-01-02T07:00:28.181Z,86.30
2019-01-02T07:02:56.745Z,86.70
2019-01-02T07:05:24.846Z,87.60
2019-01-02T07:07:53.077Z,87.20
2019-01-02T07:10:21.247Z,88.00
2019-01-02T07:12:49.465Z,87.90
2019-01-02T07:15:17.584Z,88.50
2019-01-02T07:17:45.788Z,89.10
2019-01-02T07:20:13.960Z,89.60
2019-01-02T07:22:42.074Z,89.50
2019-01-02T07:25:10.137Z,90.00
2019-01-02T07:27:38.255Z,90.10
2019-01-02T07:30:10.321Z,90.20
2019-01-02T07:32:38.434Z,90.10
2019-01-02T07:35:42.081Z,90.30
2019-01-02T07:38:50.618Z,90.20
2019-01-02T07:41:56.644Z,90.10
2019-01-02T07:44:57.057Z,90.30
2019-01-02T07:48:33.893Z,90.50
2019-01-02T07:51:49.361Z,90.50
2019-01-02T07:55:02.046Z,90.40
2019-01-02T07:57:56.482Z,90.40
2019-01-02T08:01:15.033Z,91.00
2019-01-02T08:04:12.392Z,91.80
2019-01-02T08:07:26.689Z,91.70
2019-01-02T08:10:43.820Z,91.40
2019-01-02T08:13:55.237Z,91.40
2019-01-02T08:16:51.440Z,91.20
2019-01-02T08:19:44.751Z,91.00
2019-01-02T08:22:49.484Z,90.70
2019-01-02T08:25:57.972Z,90.40
2019-01-02T08:29:15.860Z,89.50
2019-01-02T08:32:28.470Z,87.30
2019-01-02T08:35:33.688Z,86.60
2019-01-02T08:38:55.389Z,85.10
2019-01-02T08:41:49.457Z,82.70
2019-01-02T08:44:49.660Z,81.60
2019-01-02T08:47:59.440Z,81.80
2019-01-02T08:51:03.906Z,80.00
2019-01-02T08:54:28.673Z,77.80
2019-01-02T08:57:31.229Z,79.30
2019-01-02T09:00:40.860Z,75.90
2019-01-02T09:03:56.505Z,75.70
2019-01-02T09:07:07.090Z,73.90
2019-01-02T09:10:19.956Z,75.10
2019-01-02T09:13:13.738Z,70.30
2019-01-02T09:16:14.344Z,71.20
2019-01-02T09:19:15.112Z,68.30
2019-01-02T09:22:42.913Z,67.80
2019-01-02T09:25:36.025Z,67.80
2019-01-02T09:28:32.096Z,69.40
2019-01-02T09:31:23.580Z,66.80
2019-01-02T09:34:28.869Z,67.50
2019-01-02T09:37:43.702Z,66.00
2019-01-02T09:40:49.225Z,63.70
2019-01-02T09:43:50.129Z,64.00
2019-01-02T09:47:11.509Z,63.40
2019-01-02T09:50:07.278Z,61.10
2019-01-02T09:53:19.984Z,61.40
2019-01-02T09:56:22.520Z,62.50
2019-01-02T09:59:28.237Z,61.70
2019-01-02T10:02:39.660Z,60.10
2019-01-02T10:05:44.437Z,60.20
2019-01-02T10:08:23.018Z,60.90
2019-01-02T10:11:31.865Z,61.40
2019-01-02T10:15:11.745Z,59.40
2019-01-02T10:18:18.545Z,58.70
2019-01-02T10:21:24.273Z,59.50
2019-01-02T10:24:49.672Z,58.40
2019-01-02T10:27:59.092Z,58.20
2019-01-02T10:31:15.347Z,58.40
2019-01-02T10:34:20.077Z,58.60
2019-01-02T10:37:12.080Z,59.50
2019-01-02T10:40:43.269Z,58.00
2019-01-02T10:43:33.788Z,57.90
2019-01-02T10:46:25.172Z,57.70
2019-01-02T10:49:13.805Z,56.10
2019-01-02T10:52:22.705Z,55.80
2019-01-02T10:55:30.305Z,54.40
2019-01-02T10:58:52.574Z,55.10
2019-01-02T11:01:57.852Z,55.40
2019-01-02T11:05:07.232Z,53.70
2019-01-02T11:08:01.965Z,55.10
2019-01-02T11:11:19.499Z,53.50
2019-01-02T11:14:23.060Z,53.40
2019-01-02T11:17:38.568Z,53.30
2019-01-02T11:20:50.721Z,55.10
2019-01-02T11:24:15.946Z,54.00
2019-01-02T11:27:25.798Z,53.50
2019-01-02T11:30:44.524Z,54.30
2019-01-02T11:33:50.401Z,53.90
2019-01-02T11:37:18.188Z,53.90
2019-01-02T11:40:16.009Z,53.50
2019-01-02T11:43:32.485Z,52.70
2019-01-02T11:46:00.613Z,53.40
2019-01-02T11:48:28.692Z,54.50
2019-01-02T11:50:56.856Z,53.90
2019-01-02T11:53:24.928Z,52.00
2019-01-02T11:55:53.148Z,51.70
2019-01-02T11:58:21.316Z,52.80
2019-01-02T12:00:50.289Z,52.10
2019-01-02T12:03:18.972Z,52.20
2019-01-02T12:05:47.097Z,52.70
2019-01-02T12:08:15.156Z,52.00
2019-01-02T12:10:43.673Z,52.40
2019-01-02T12:13:11.742Z,52.90
2019-01-02T12:15:39.865Z,53.40
2019-01-02T12:18:07.949Z,53.20
2019-01-02T12:20:37.374Z,53.40
2019-01-02T12:23:05.944Z,51.30
2019-01-02T12:25:34.474Z,52.20
2019-01-02T12:28:02.555Z,52.40
2019-01-02T12:30:30.673Z,52.70
2019-01-02T12:32:58.745Z,51.00
2019-01-02T12:35:26.869Z,50.60
2019-01-02T12:37:54.939Z,50.80
2019-01-02T12:40:23.067Z,50.50
2019-01-02T12:42:51.131Z,49.90
2019-01-02T12:45:19.739Z,49.20
2019-01-02T12:47:47.805Z,50.30
2019-01-02T12:50:15.933Z,49.70
2019-01-02T12:52:44.431Z,49.90
2019-01-02T12:55:13.044Z,48.40
2019-01-02T12:57:42.848Z,47.50
2019-01-02T13:00:14.437Z,46.80
2019-01-02T13:03:12.994Z,47.10
2019-01-02T13:06:41.356Z,48.00
2019-01-02T13:09:38.425Z,46.70
2019-01-02T13:12:37.376Z,47.90
2019-01-02T13:15:35.024Z,47.80
2019-01-02T13:18:39.457Z,47.40
2019-01-02T13:21:52.140Z,45.90
2019-01-02T13:24:46.389Z,46.20
2019-01-02T13:27:41.794Z,46.50
2019-01-02T13:31:03.589Z,45.80
2019-01-02T13:34:25.089Z,45.30
2019-01-02T13:37:10.300Z,44.40
2019-01-02T13:40:28.743Z,45.10
2019-01-02T13:43:49.315Z,45.00
2019-01-02T13:46:31.553Z,45.20
2019-01-02T13:49:39.097Z,45.60
2019-01-02T13:52:07.269Z,45.00
2019-01-02T13:54:35.786Z,44.60
2019-01-02T13:57:09.194Z,45.00
2019-01-02T13:59:42.796Z,44.90
2019-01-02T14:02:11.073Z,44.40
2019-01-02T14:04:42.149Z,45.00
2019-01-02T14:07:12.772Z,44.60
2019-01-02T14:09:45.217Z,44.20
2019-01-02T14:12:13.857Z,44.60
2019-01-02T14:14:44.512Z,44.90
2019-01-02T14:17:15.137Z,45.10
2019-01-02T14:19:46.042Z,46.60
2019-01-02T14:22:14.108Z,45.50
2019-01-02T14:24:42.380Z,44.10
2019-01-02T14:27:10.565Z,45.10
2019-01-02T14:29:38.727Z,44.30
2019-01-02T14:32:09.932Z,44.00
2019-01-02T14:34:38.045Z,44.00
2019-01-02T14:37:07.161Z,44.20
2019-01-02T14:39:36.621Z,43.90
2019-01-02T14:42:04.793Z,44.00
2019-01-02T14:44:33.352Z,43.80
2019-01-02T14:47:01.849Z,44.50
2019-01-02T14:49:29.998Z,43.70
2019-01-02T14:51:58.385Z,43.10
2019-01-02T14:54:26.868Z,44.20
2019-01-02T14:56:54.936Z,44.70
2019-01-02T14:59:24.628Z,43.60
2019-01-02T15:01:52.901Z,44.10
2019-01-02T15:04:21.008Z,44.20
2019-01-02T15:06:49.088Z,44.10
2019-01-02T15:09:17.216Z,44.30
2019-01-02T15:11:45.452Z,44.40
2019-01-02T15:14:13.564Z,44.40
2019-01-02T15:16:44.684Z,45.00
2019-01-02T15:19:12.008Z,44.70
2019-01-02T15:21:40.092Z,44.50
2019-01-02T15:24:08.584Z,45.20
2019-01-02T15:26:37.138Z,44.60
2019-01-02T15:29:05.702Z,45.00
2019-01-02T15:31:33.810Z,45.10
2019-01-02T15:34:01.916Z,45.20
2019-01-02T15:36:30.000Z,44.90
2019-01-02T15:38:58.128Z,44.20
2019-01-02T15:41:26.192Z,43.40
2019-01-02T15:43:54.326Z,43.40
2019-01-02T15:46:22.808Z,44.00
2019-01-02T15:48:50.994Z,44.20
2019-01-02T15:51:19.417Z,44.20
2019-01-02T15:53:47.531Z,44.90
2019-01-02T15:56:15.702Z,44.80
2019-01-02T15:58:45.161Z,46.10
2019-01-02T16:01:13.216Z,45.80
2019-01-02T16:03:41.336Z,46.50
2019-01-02T16:06:09.404Z,45.40
2019-01-02T16:08:37.521Z,45.50
2019-01-02T16:11:05.637Z,45.60
2019-01-02T16:13:33.754Z,46.00
2019-01-02T16:16:01.865Z,45.80
2019-01-02T16:18:29.986Z,46.10
2019-01-02T16:20:58.045Z,45.80
2019-01-02T16:23:26.158Z,46.10
2019-01-02T16:25:54.265Z,46.10
2019-01-02T16:31:46.549Z,45.60
2019-01-02T16:34:14.665Z,45.50
2019-01-02T16:37:00.754Z,45.10
2019-01-02T16:39:52.817Z,45.30
2019-01-02T16:42:20.881Z,45.40
2019-01-02T16:44:48.944Z,45.70
2019-01-02T16:47:17.053Z,45.10
2019-01-02T16:49:45.966Z,45.50
2019-01-02T16:52:14.076Z,45.30
2019-01-02T16:54:42.192Z,45.90
2019-01-02T16:57:10.344Z,46.10
2019-01-02T16:59:38.589Z,46.50
2019-01-02T17:02:06.782Z,46.70
2019-01-02T17:04:35.040Z,46.70
2019-01-02T17:07:03.111Z,46.80
2019-01-02T17:09:31.721Z,47.10
2019-01-02T17:11:59.840Z,47.20
2019-01-02T17:14:28.008Z,48.10
2019-01-02T17:17:15.422Z,47.60
2019-01-02T17:19:43.581Z,47.70
2019-01-02T17:22:11.651Z,47.30
2019-01-02T17:24:39.761Z,47.50
2019-01-02T17:27:07.832Z,47.10
2019-01-02T17:29:36.369Z,47.20
2019-01-02T17:32:04.434Z,47.10
2019-01-02T17:34:32.553Z,48.20
2019-01-02T17:37:00.652Z,47.90
2019-01-02T17:39:28.820Z,47.50
2019-01-02T17:41:56.930Z,47.40
2019-01-02T17:44:25.065Z,47.50
2019-01-02T17:46:53.149Z,47.60
2019-01-02T17:49:21.350Z,48.00
2019-01-02T17:51:49.668Z,47.80
2019-01-02T17:54:17.743Z,48.30
2019-01-02T17:56:45.913Z,48.90
2019-01-02T17:59:14.008Z,49.00
2019-01-02T18:01:43.610Z,49.70
2019-01-02T18:04:11.734Z,50.00
2019-01-02T18:06:40.376Z,50.40
2019-01-02T18:09:08.657Z,50.70
2019-01-02T18:11:36.787Z,50.80
2019-01-02T18:14:05.141Z,51.00
2019-01-02T18:16:33.380Z,51.30
2019-01-02T18:19:01.521Z,51.30
2019-01-02T18:21:29.693Z,51.50
2019-01-02T18:23:58.118Z,51.80
2019-01-02T18:26:26.244Z,52.00
2019-01-02T18:28:54.424Z,51.90
2019-01-02T18:31:22.608Z,52.10
2019-01-02T18:33:50.955Z,52.30
2019-01-02T18:36:19.046Z,52.10
2019-01-02T18:38:47.214Z,52.40
2019-01-02T18:41:15.758Z,52.50
2019-01-02T18:43:43.893Z,52.50
2019-01-02T18:46:11.997Z,52.30
2019-01-02T18:48:40.114Z,52.40
2019-01-02T18:51:09.307Z,52.80
2019-01-02T18:53:37.441Z,52.40
2019-01-02T18:56:05.525Z,52.30
2019-01-02T18:58:33.654Z,52.60
2019-01-02T19:01:01.728Z,51.90
2019-01-02T19:03:29.897Z,52.00
2019-01-02T19:05:58.028Z,51.70
2019-01-02T19:08:26.208Z,51.70
2019-01-02T19:10:54.381Z,51.60
2019-01-02T19:13:22.609Z,51.30
2019-01-02T19:15:50.686Z,51.60
2019-01-02T19:18:19.052Z,51.80
2019-01-02T19:20:47.360Z,52.20
2019-01-02T19:23:15.959Z,52.00
2019-01-02T19:25:44.069Z,52.30
2019-01-02T19:28:12.142Z,52.10
2019-01-02T19:30:40.360Z,52.60
2019-01-02T19:33:08.429Z,52.60
2019-01-02T19:35:36.559Z,52.80
2019-01-02T19:38:04.651Z,52.70
2019-01-02T19:40:32.761Z,53.00
2019-01-02T19:43:00.834Z,53.00
2019-01-02T19:45:28.956Z,53.40
2019-01-02T19:47:57.124Z,53.20
2019-01-02T19:50:25.264Z,53.40
2019-01-02T19:52:53.324Z,53.40
2019-01-02T19:55:21.453Z,53.40
2019-01-02T19:57:49.522Z,52.90
2019-01-02T20:00:17.648Z,53.00
2019-01-02T20:02:45.777Z,52.70
2019-01-02T20:05:13.888Z,52.80
2019-01-02T20:07:41.965Z,52.30
2019-01-02T20:10:10.942Z,52.60
2019-01-02T20:12:39.465Z,53.00
2019-01-02T20:15:11.164Z,52.70
2019-01-02T20:17:39.412Z,52.50
2019-01-02T20:20:09.742Z,53.30
2019-01-02T20:22:38.437Z,53.40
2019-01-02T20:25:07.092Z,53.10
2019-01-02T20:27:35.181Z,53.40
2019-01-02T20:30:03.928Z,53.20
2019-01-02T20:32:31.994Z,53.20
2019-01-02T20:35:00.244Z,53.50
2019-01-02T20:37:28.321Z,53.50
2019-01-02T20:39:56.442Z,53.70
2019-01-02T20:42:24.584Z,53.60
2019-01-02T20:44:52.714Z,53.80
2019-01-02T20:47:20.781Z,53.60
2019-01-02T20:49:48.901Z,53.80
2019-01-02T20:52:17.025Z,53.70
2019-01-02T20:54:45.113Z,53.90
2019-01-02T20:57:13.224Z,53.80
2019-01-02T20:59:41.366Z,53.70
2019-01-02T21:02:09.490Z,54.30
2019-01-02T21:04:37.574Z,54.00
2019-01-02T21:07:05.797Z,54.20
2019-01-02T21:09:33.875Z,53.90
2019-01-02T21:12:01.991Z,54.00
2019-01-02T21:14:30.062Z,54.10
2019-01-02T21:16:58.186Z,54.40
2019-01-02T21:19:26.317Z,54.40
2019-01-02T21:21:54.433Z,54.10
2019-01-02T21:24:22.504Z,54.40
2019-01-02T21:26:50.989Z,53.90
2019-01-02T21:29:19.079Z,54.20
2019-01-02T21:31:47.205Z,53.90
2019-01-02T21:34:15.273Z,54.40
2019-01-02T21:36:43.501Z,54.10
2019-01-02T21:39:11.940Z,54.20
2019-01-02T21:41:40.060Z,54.10
2019-01-02T21:44:08.137Z,54.50
2019-01-02T21:46:36.383Z,54.80
2019-01-02T21:49:04.461Z,54.50
2019-01-02T21:51:32.597Z,54.40
2019-01-02T21:54:00.828Z,54.10
2019-01-02T21:56:29.409Z,54.40
2019-01-02T21:58:57.497Z,54.70
2019-01-02T22:01:25.964Z,54.40
2019-01-02T22:03:54.041Z,54.40
2019-01-02T22:06:22.170Z,54.20
2019-01-02T22:08:50.268Z,54.30
2019-01-02T22:11:18.385Z,54.50
2019-01-02T22:13:46.488Z,55.00
2019-01-02T22:16:14.628Z,54.70
2019-01-02T22:18:42.721Z,54.60
2019-01-02T22:21:11.490Z,54.50
2019-01-02T22:23:39.624Z,54.70
2019-01-02T22:26:07.760Z,54.20
2019-01-02T22:28:35.868Z,54.80
2019-01-02T22:31:05.024Z,54.40
2019-01-02T22:33:33.155Z,54.10
2019-01-02T22:36:01.281Z,54.50
2019-01-02T22:38:29.808Z,55.10
2019-01-02T22:40:58.053Z,55.00
2019-01-02T22:43:26.144Z,54.40
2019-01-02T22:45:55.539Z,54.80
2019-01-02T22:48:23.641Z,54.70
2019-01-02T22:50:51.780Z,53.90
2019-01-02T22:53:19.996Z,54.10
2019-01-02T22:55:48.128Z,54.80
2019-01-02T22:58:16.225Z,54.40
2019-01-02T23:01:02.156Z,54.70
2019-01-02T23:03:55.073Z,54.30
2019-01-02T23:06:42.689Z,54.80
2019-01-02T23:09:30.162Z,54.80
2019-01-02T23:12:26.273Z,54.60
2019-01-02T23:22:51.470Z,53.90
2019-01-02T23:25:37.540Z,54.20
2019-01-02T23:28:30.951Z,54.10
2019-01-02T23:31:17.184Z,54.10
2019-01-02T23:34:10.377Z,54.20
2019-01-02T23:37:00.728Z,53.90
2019-01-02T23:39:55.644Z,53.80
2019-01-02T23:42:52.247Z,54.50
2019-01-02T23:45:38.396Z,53.80
2019-01-02T23:48:24.296Z,53.80
2019-01-02T23:51:14.649Z,53.60
2019-01-02T23:54:20.397Z,53.80
2019-01-02T23:57:06.602Z,53.20
